Benson, United Kingdom

11:12 AM BST on September 30, 2014 (GMT +0100)
IOXFORDS9 | Change Station
CLOSE
Current Station
Personal Weather Station
Location: Wallingford, OXFORDSHIRE
Elevation: 154 ft
Nearby Weather Stations

Elev 154 ft 51.58 °N, 1.14 °W | Updated 2 minutes ago

Mostly Cloudy
Mostly Cloudy
64.4 °F
Feels Like 64.4 °F
N
0.0
Wind Variable Wind from North
Gusts 0.0 mph

Today
High -- | Low -- °F
--% Chance of Precip.
Yesterday
High -- | Low -- °F
Precip. -- in
7:03 AM 6:44 PM
Waxing Crescent, 35% visible
Pressure 30.12 in
Visibility 1.9 miles
Clouds Mostly Cloudy 400 ft
Dew Point 54 °F
Humidity 68%
Rainfall 0.00 in
Snow Depth Not available.
UV 2 out of 12
Pollen Not available.
Air Quality Not available.
Flu Activity Not available.
METAR EGVN 291012Z 22003KT 3000 BR BKN004 15/14 Q1020 YLO2 BECMG 5000 HZ SCT007 GRN

More Conditions Fewer Conditions

Pressure 30.12 in
Visibility 1.9 miles
Clouds Mostly Cloudy 400 ft
Dew Point 54 °F
Humidity 68%
Rainfall 0.00 in
Snow Depth Not available.
UV 2 out of 12
Pollen Not available.
Air Quality Not available.
Flu Activity Not available.
METAR EGVN 291012Z 22003KT 3000 BR BKN004 15/14 Q1020 YLO2 BECMG 5000 HZ SCT007 GRN

More Conditions Fewer Conditions

10-Day Weather Forecast

Almanac

Astronomy

Sep. 30, 2014 Rise Set
Actual Time 7:03 AM BST 6:44 PM BST
Civil Twilight 6:29 AM BST 7:17 PM BST
Nautical Twilight 5:50 AM BST 7:56 PM BST
Astronomical Twilight 5:10 AM BST 8:36 PM BST
Moon 1:30 PM BST 10:28 PM BST
Length of Visible Light 12h 48m
Length of Day
11h 41m
Tomorrow will be 3m 56s shorter.
Waxing Crescent, 35% of the Moon is Illuminated
Today
Waxing Crescent
Oct 1
First Quarter
Oct 8
Full
Oct 15
Last Quarter
Oct 23
New

Yesterday's Extremes

Country Highs Country Lows

Community

WunderPhotos

Upload Photos

1,757,608 photos uploaded!

Nearby

Snow Depth

Not available.

Earthquake Activity

City Distance Mag. Time & Date
No recent earthquake activity has been reported nearby.
Minimum magnitude displayed is 2.5.

Coastal Water Temperatures

Place Temperature
No Stations Reporting

Nearby Weather Stations